sensor_id;sensor_type;location;lat;lon;timestamp;P1;durP1;ratioP1;P2;durP2;ratioP2
58123;SDS011;46725;48.068;20.832;2023-03-31T00:00:44;32.47;;;19.27;;
58123;SDS011;46725;48.068;20.832;2023-03-31T00:03:11;26.17;;;16.98;;
58123;SDS011;46725;48.068;20.832;2023-03-31T00:05:37;30.17;;;17.92;;
58123;SDS011;46725;48.068;20.832;2023-03-31T00:08:03;29.30;;;17.10;;
58123;SDS011;46725;48.068;20.832;2023-03-31T00:10:31;28.45;;;17.80;;
58123;SDS011;46725;48.068;20.832;2023-03-31T00:12:58;27.60;;;18.33;;
58123;SDS011;46725;48.068;20.832;2023-03-31T00:15:24;28.73;;;18.15;;
58123;SDS011;46725;48.068;20.832;2023-03-31T00:17:51;30.80;;;19.02;;
58123;SDS011;46725;48.068;20.832;2023-03-31T00:20:17;30.98;;;19.02;;
58123;SDS011;46725;48.068;20.832;2023-03-31T00:22:44;34.65;;;21.02;;
58123;SDS011;46725;48.068;20.832;2023-03-31T00:25:13;32.83;;;20.48;;
58123;SDS011;46725;48.068;20.832;2023-03-31T00:27:43;34.97;;;22.17;;
58123;SDS011;46725;48.068;20.832;2023-03-31T00:30:09;32.03;;;21.50;;
58123;SDS011;46725;48.068;20.832;2023-03-31T00:32:36;35.90;;;21.42;;
58123;SDS011;46725;48.068;20.832;2023-03-31T00:35:02;33.22;;;21.75;;
58123;SDS011;46725;48.068;20.832;2023-03-31T00:37:29;37.65;;;24.33;;
58123;SDS011;46725;48.068;20.832;2023-03-31T00:39:57;34.92;;;22.17;;
58123;SDS011;46725;48.068;20.832;2023-03-31T00:42:24;39.55;;;23.40;;
58123;SDS011;46725;48.068;20.832;2023-03-31T00:47:36;47.22;;;26.40;;
58123;SDS011;46725;48.068;20.832;2023-03-31T00:50:03;49.75;;;27.63;;
58123;SDS011;46725;48.068;20.832;2023-03-31T00:52:33;51.55;;;28.48;;
58123;SDS011;46725;48.068;20.832;2023-03-31T00:55:06;55.17;;;28.60;;
58123;SDS011;46725;48.068;20.832;2023-03-31T00:57:33;54.97;;;29.42;;
58123;SDS011;46725;48.068;20.832;2023-03-31T01:00:04;53.42;;;29.08;;
58123;SDS011;46725;48.068;20.832;2023-03-31T01:02:40;57.60;;;30.63;;
58123;SDS011;46725;48.068;20.832;2023-03-31T01:05:15;58.13;;;30.92;;
58123;SDS011;46725;48.068;20.832;2023-03-31T01:07:43;52.10;;;30.15;;
58123;SDS011;46725;48.068;20.832;2023-03-31T01:10:12;55.42;;;30.75;;
58123;SDS011;46725;48.068;20.832;2023-03-31T01:12:43;54.35;;;30.80;;
58123;SDS011;46725;48.068;20.832;2023-03-31T01:15:10;61.88;;;31.63;;
58123;SDS011;46725;48.068;20.832;2023-03-31T01:17:36;55.22;;;30.58;;
58123;SDS011;46725;48.068;20.832;2023-03-31T01:28:16;56.28;;;32.55;;
58123;SDS011;46725;48.068;20.832;2023-03-31T01:46:21;59.08;;;32.13;;
58123;SDS011;46725;48.068;20.832;2023-03-31T01:51:26;54.78;;;31.50;;
58123;SDS011;46725;48.068;20.832;2023-03-31T01:59:35;52.33;;;27.13;;
58123;SDS011;46725;48.068;20.832;2023-03-31T02:01:40;56.85;;;29.60;;
58123;SDS011;46725;48.068;20.832;2023-03-31T02:04:51;53.67;;;28.90;;
58123;SDS011;46725;48.068;20.832;2023-03-31T02:06:59;56.40;;;27.92;;
58123;SDS011;46725;48.068;20.832;2023-03-31T02:09:30;52.88;;;28.95;;
58123;SDS011;46725;48.068;20.832;2023-03-31T02:11:58;58.58;;;29.88;;
58123;SDS011;46725;48.068;20.832;2023-03-31T02:14:26;57.25;;;29.48;;
58123;SDS011;46725;48.068;20.832;2023-03-31T02:16:54;53.15;;;28.60;;
58123;SDS011;46725;48.068;20.832;2023-03-31T02:19:31;53.25;;;28.80;;
58123;SDS011;46725;48.068;20.832;2023-03-31T02:21:58;53.03;;;27.70;;
58123;SDS011;46725;48.068;20.832;2023-03-31T02:24:25;50.20;;;27.42;;
58123;SDS011;46725;48.068;20.832;2023-03-31T02:27:38;47.67;;;27.35;;
58123;SDS011;46725;48.068;20.832;2023-03-31T02:29:39;53.03;;;27.08;;
58123;SDS011;46725;48.068;20.832;2023-03-31T02:32:10;53.75;;;28.13;;
58123;SDS011;46725;48.068;20.832;2023-03-31T02:34:38;51.60;;;27.25;;
58123;SDS011;46725;48.068;20.832;2023-03-31T02:37:04;52.55;;;28.42;;
58123;SDS011;46725;48.068;20.832;2023-03-31T02:39:34;44.97;;;26.33;;
58123;SDS011;46725;48.068;20.832;2023-03-31T02:42:01;50.67;;;27.00;;
58123;SDS011;46725;48.068;20.832;2023-03-31T02:44:38;51.47;;;26.88;;
58123;SDS011;46725;48.068;20.832;2023-03-31T02:47:08;47.75;;;26.17;;
58123;SDS011;46725;48.068;20.832;2023-03-31T02:49:35;53.17;;;25.92;;
58123;SDS011;46725;48.068;20.832;2023-03-31T02:57:00;51.70;;;27.10;;
58123;SDS011;46725;48.068;20.832;2023-03-31T02:59:41;49.25;;;27.50;;
58123;SDS011;46725;48.068;20.832;2023-03-31T03:05:00;58.97;;;29.25;;
58123;SDS011;46725;48.068;20.832;2023-03-31T03:15:32;62.20;;;30.83;;
58123;SDS011;46725;48.068;20.832;2023-03-31T03:18:01;58.42;;;30.63;;
58123;SDS011;46725;48.068;20.832;2023-03-31T03:20:28;62.42;;;32.42;;
58123;SDS011;46725;48.068;20.832;2023-03-31T03:22:58;59.78;;;31.38;;
58123;SDS011;46725;48.068;20.832;2023-03-31T03:25:24;63.92;;;31.25;;
58123;SDS011;46725;48.068;20.832;2023-03-31T03:27:50;59.47;;;31.58;;
58123;SDS011;46725;48.068;20.832;2023-03-31T03:30:19;58.42;;;31.55;;
58123;SDS011;46725;48.068;20.832;2023-03-31T03:32:45;57.45;;;31.08;;
58123;SDS011;46725;48.068;20.832;2023-03-31T03:35:12;61.90;;;31.05;;
58123;SDS011;46725;48.068;20.832;2023-03-31T03:37:38;61.55;;;31.20;;
58123;SDS011;46725;48.068;20.832;2023-03-31T03:40:04;58.38;;;31.33;;
58123;SDS011;46725;48.068;20.832;2023-03-31T03:42:31;56.47;;;29.77;;
58123;SDS011;46725;48.068;20.832;2023-03-31T03:44:57;58.03;;;31.17;;
58123;SDS011;46725;48.068;20.832;2023-03-31T03:47:23;60.60;;;31.17;;
58123;SDS011;46725;48.068;20.832;2023-03-31T03:49:49;52.78;;;29.08;;
58123;SDS011;46725;48.068;20.832;2023-03-31T03:52:15;58.58;;;29.85;;
58123;SDS011;46725;48.068;20.832;2023-03-31T03:54:41;57.95;;;29.55;;
58123;SDS011;46725;48.068;20.832;2023-03-31T03:57:08;55.95;;;29.05;;
58123;SDS011;46725;48.068;20.832;2023-03-31T03:59:34;52.22;;;28.88;;
58123;SDS011;46725;48.068;20.832;2023-03-31T04:02:00;52.75;;;29.00;;
58123;SDS011;46725;48.068;20.832;2023-03-31T04:04:26;49.75;;;27.13;;
58123;SDS011;46725;48.068;20.832;2023-03-31T04:06:52;52.85;;;28.50;;
58123;SDS011;46725;48.068;20.832;2023-03-31T04:09:18;51.40;;;28.70;;
58123;SDS011;46725;48.068;20.832;2023-03-31T04:11:44;53.28;;;28.38;;
58123;SDS011;46725;48.068;20.832;2023-03-31T04:14:10;50.28;;;28.42;;
58123;SDS011;46725;48.068;20.832;2023-03-31T04:16:36;50.65;;;28.27;;
58123;SDS011;46725;48.068;20.832;2023-03-31T04:19:04;53.65;;;29.00;;
58123;SDS011;46725;48.068;20.832;2023-03-31T04:21:31;66.38;;;32.50;;
58123;SDS011;46725;48.068;20.832;2023-03-31T04:24:00;69.47;;;35.50;;
58123;SDS011;46725;48.068;20.832;2023-03-31T04:26:28;62.03;;;33.67;;
58123;SDS011;46725;48.068;20.832;2023-03-31T04:28:58;49.35;;;27.48;;
58123;SDS011;46725;48.068;20.832;2023-03-31T04:31:26;48.17;;;26.40;;
58123;SDS011;46725;48.068;20.832;2023-03-31T04:33:54;45.75;;;25.38;;
58123;SDS011;46725;48.068;20.832;2023-03-31T04:36:25;45.05;;;26.20;;
58123;SDS011;46725;48.068;20.832;2023-03-31T04:38:53;49.30;;;27.98;;
58123;SDS011;46725;48.068;20.832;2023-03-31T04:41:20;50.45;;;26.20;;
58123;SDS011;46725;48.068;20.832;2023-03-31T04:43:46;50.97;;;28.55;;
58123;SDS011;46725;48.068;20.832;2023-03-31T04:46:12;50.92;;;28.42;;
58123;SDS011;46725;48.068;20.832;2023-03-31T04:48:38;51.15;;;28.30;;
58123;SDS011;46725;48.068;20.832;2023-03-31T04:51:05;52.28;;;28.02;;
58123;SDS011;46725;48.068;20.832;2023-03-31T04:53:31;52.42;;;28.42;;
58123;SDS011;46725;48.068;20.832;2023-03-31T04:55:57;50.13;;;27.42;;
58123;SDS011;46725;48.068;20.832;2023-03-31T04:58:23;46.75;;;26.58;;
58123;SDS011;46725;48.068;20.832;2023-03-31T05:00:50;55.75;;;26.77;;
58123;SDS011;46725;48.068;20.832;2023-03-31T05:03:16;49.22;;;26.10;;
58123;SDS011;46725;48.068;20.832;2023-03-31T05:05:43;46.63;;;26.35;;
58123;SDS011;46725;48.068;20.832;2023-03-31T05:08:09;46.17;;;24.98;;
58123;SDS011;46725;48.068;20.832;2023-03-31T05:10:35;48.75;;;25.58;;
58123;SDS011;46725;48.068;20.832;2023-03-31T05:13:01;46.20;;;23.65;;
58123;SDS011;46725;48.068;20.832;2023-03-31T05:15:27;46.45;;;24.58;;
58123;SDS011;46725;48.068;20.832;2023-03-31T05:17:53;46.65;;;24.67;;
58123;SDS011;46725;48.068;20.832;2023-03-31T05:20:20;50.88;;;26.27;;
58123;SDS011;46725;48.068;20.832;2023-03-31T05:22:46;52.20;;;25.77;;
58123;SDS011;46725;48.068;20.832;2023-03-31T05:25:12;57.35;;;26.90;;
58123;SDS011;46725;48.068;20.832;2023-03-31T05:27:42;45.58;;;25.50;;
58123;SDS011;46725;48.068;20.832;2023-03-31T05:30:09;49.15;;;25.23;;
58123;SDS011;46725;48.068;20.832;2023-03-31T05:32:35;50.88;;;26.52;;
58123;SDS011;46725;48.068;20.832;2023-03-31T05:35:01;46.58;;;25.38;;
58123;SDS011;46725;48.068;20.832;2023-03-31T05:37:27;43.85;;;24.60;;
58123;SDS011;46725;48.068;20.832;2023-03-31T05:39:53;45.95;;;24.30;;
58123;SDS011;46725;48.068;20.832;2023-03-31T05:42:20;46.72;;;25.80;;
58123;SDS011;46725;48.068;20.832;2023-03-31T05:44:46;46.33;;;24.92;;
58123;SDS011;46725;48.068;20.832;2023-03-31T05:47:12;41.70;;;23.10;;
58123;SDS011;46725;48.068;20.832;2023-03-31T05:49:38;43.47;;;24.38;;
58123;SDS011;46725;48.068;20.832;2023-03-31T05:52:05;46.13;;;25.77;;
58123;SDS011;46725;48.068;20.832;2023-03-31T05:54:31;41.08;;;23.13;;
58123;SDS011;46725;48.068;20.832;2023-03-31T05:56:57;44.90;;;24.77;;
58123;SDS011;46725;48.068;20.832;2023-03-31T05:59:23;42.67;;;24.30;;
58123;SDS011;46725;48.068;20.832;2023-03-31T06:01:49;42.33;;;24.92;;
58123;SDS011;46725;48.068;20.832;2023-03-31T06:04:15;42.00;;;24.10;;
58123;SDS011;46725;48.068;20.832;2023-03-31T06:06:41;44.40;;;23.90;;
58123;SDS011;46725;48.068;20.832;2023-03-31T06:09:08;41.13;;;23.90;;
58123;SDS011;46725;48.068;20.832;2023-03-31T06:11:36;43.45;;;24.60;;
58123;SDS011;46725;48.068;20.832;2023-03-31T06:14:03;39.97;;;23.15;;
58123;SDS011;46725;48.068;20.832;2023-03-31T06:16:29;46.90;;;24.92;;
58123;SDS011;46725;48.068;20.832;2023-03-31T06:18:55;43.75;;;24.10;;
58123;SDS011;46725;48.068;20.832;2023-03-31T06:21:21;51.55;;;26.88;;
58123;SDS011;46725;48.068;20.832;2023-03-31T06:23:48;51.05;;;26.52;;
58123;SDS011;46725;48.068;20.832;2023-03-31T06:26:16;57.38;;;28.98;;
58123;SDS011;46725;48.068;20.832;2023-03-31T06:28:42;50.92;;;27.75;;
58123;SDS011;46725;48.068;20.832;2023-03-31T06:31:09;52.08;;;28.88;;
58123;SDS011;46725;48.068;20.832;2023-03-31T06:33:36;53.28;;;27.00;;
58123;SDS011;46725;48.068;20.832;2023-03-31T06:36:03;55.28;;;27.30;;
58123;SDS011;46725;48.068;20.832;2023-03-31T06:38:30;54.63;;;26.88;;
58123;SDS011;46725;48.068;20.832;2023-03-31T06:40:57;50.47;;;27.48;;
58123;SDS011;46725;48.068;20.832;2023-03-31T06:43:23;51.05;;;27.92;;
58123;SDS011;46725;48.068;20.832;2023-03-31T06:45:49;52.70;;;28.23;;
58123;SDS011;46725;48.068;20.832;2023-03-31T06:48:17;56.53;;;27.50;;
58123;SDS011;46725;48.068;20.832;2023-03-31T06:50:43;56.78;;;29.38;;
58123;SDS011;46725;48.068;20.832;2023-03-31T06:53:09;67.72;;;32.08;;
58123;SDS011;46725;48.068;20.832;2023-03-31T06:55:35;60.58;;;28.33;;
58123;SDS011;46725;48.068;20.832;2023-03-31T06:58:02;57.92;;;27.83;;
58123;SDS011;46725;48.068;20.832;2023-03-31T07:00:28;59.45;;;30.42;;
58123;SDS011;46725;48.068;20.832;2023-03-31T07:02:55;62.63;;;30.20;;
58123;SDS011;46725;48.068;20.832;2023-03-31T07:05:21;63.53;;;30.30;;
58123;SDS011;46725;48.068;20.832;2023-03-31T07:07:54;63.13;;;29.20;;
58123;SDS011;46725;48.068;20.832;2023-03-31T07:10:20;56.90;;;28.25;;
58123;SDS011;46725;48.068;20.832;2023-03-31T07:12:47;57.67;;;28.52;;
58123;SDS011;46725;48.068;20.832;2023-03-31T07:15:13;58.10;;;29.92;;
58123;SDS011;46725;48.068;20.832;2023-03-31T07:17:39;57.45;;;28.90;;
58123;SDS011;46725;48.068;20.832;2023-03-31T07:20:06;53.33;;;27.55;;
58123;SDS011;46725;48.068;20.832;2023-03-31T07:22:42;60.58;;;29.73;;
58123;SDS011;46725;48.068;20.832;2023-03-31T07:25:09;55.33;;;28.83;;
58123;SDS011;46725;48.068;20.832;2023-03-31T07:27:35;56.40;;;27.38;;
58123;SDS011;46725;48.068;20.832;2023-03-31T07:30:05;54.10;;;27.83;;
58123;SDS011;46725;48.068;20.832;2023-03-31T07:32:31;55.53;;;29.05;;
58123;SDS011;46725;48.068;20.832;2023-03-31T07:34:58;56.75;;;27.83;;
58123;SDS011;46725;48.068;20.832;2023-03-31T07:37:24;50.97;;;26.13;;
58123;SDS011;46725;48.068;20.832;2023-03-31T07:39:50;45.92;;;24.67;;
58123;SDS011;46725;48.068;20.832;2023-03-31T07:42:16;49.38;;;25.35;;
58123;SDS011;46725;48.068;20.832;2023-03-31T07:44:43;54.40;;;27.55;;
58123;SDS011;46725;48.068;20.832;2023-03-31T07:47:09;52.90;;;26.67;;
58123;SDS011;46725;48.068;20.832;2023-03-31T07:49:35;49.55;;;26.05;;
58123;SDS011;46725;48.068;20.832;2023-03-31T07:52:01;47.10;;;25.83;;
58123;SDS011;46725;48.068;20.832;2023-03-31T07:54:27;48.80;;;26.63;;
58123;SDS011;46725;48.068;20.832;2023-03-31T07:56:53;48.90;;;26.70;;
58123;SDS011;46725;48.068;20.832;2023-03-31T07:59:19;48.50;;;26.00;;
58123;SDS011;46725;48.068;20.832;2023-03-31T08:01:46;47.92;;;25.95;;
58123;SDS011;46725;48.068;20.832;2023-03-31T08:04:12;45.80;;;25.52;;
58123;SDS011;46725;48.068;20.832;2023-03-31T08:06:38;47.00;;;24.13;;
58123;SDS011;46725;48.068;20.832;2023-03-31T08:09:04;43.63;;;24.15;;
58123;SDS011;46725;48.068;20.832;2023-03-31T08:11:32;44.28;;;23.25;;
58123;SDS011;46725;48.068;20.832;2023-03-31T08:13:58;41.88;;;24.42;;
58123;SDS011;46725;48.068;20.832;2023-03-31T08:16:24;42.38;;;23.83;;
58123;SDS011;46725;48.068;20.832;2023-03-31T08:18:50;49.75;;;25.50;;
58123;SDS011;46725;48.068;20.832;2023-03-31T08:21:16;41.78;;;23.83;;
58123;SDS011;46725;48.068;20.832;2023-03-31T08:23:42;40.63;;;23.83;;
58123;SDS011;46725;48.068;20.832;2023-03-31T08:26:10;39.75;;;22.65;;
58123;SDS011;46725;48.068;20.832;2023-03-31T08:28:36;42.92;;;24.33;;
58123;SDS011;46725;48.068;20.832;2023-03-31T08:31:06;41.38;;;23.23;;
58123;SDS011;46725;48.068;20.832;2023-03-31T08:33:33;43.20;;;24.92;;
58123;SDS011;46725;48.068;20.832;2023-03-31T08:36:03;39.95;;;22.40;;
58123;SDS011;46725;48.068;20.832;2023-03-31T08:38:30;44.35;;;24.98;;
58123;SDS011;46725;48.068;20.832;2023-03-31T08:41:03;42.83;;;22.55;;
58123;SDS011;46725;48.068;20.832;2023-03-31T08:43:31;38.97;;;23.10;;
58123;SDS011;46725;48.068;20.832;2023-03-31T08:45:58;40.65;;;22.45;;
58123;SDS011;46725;48.068;20.832;2023-03-31T08:48:26;45.42;;;22.92;;
58123;SDS011;46725;48.068;20.832;2023-03-31T08:51:16;41.33;;;22.15;;
58123;SDS011;46725;48.068;20.832;2023-03-31T08:53:41;44.67;;;24.27;;
58123;SDS011;46725;48.068;20.832;2023-03-31T08:56:12;42.22;;;23.33;;
58123;SDS011;46725;48.068;20.832;2023-03-31T08:58:43;39.10;;;22.42;;
58123;SDS011;46725;48.068;20.832;2023-03-31T09:01:25;43.47;;;22.38;;
58123;SDS011;46725;48.068;20.832;2023-03-31T09:04:04;42.67;;;23.13;;
58123;SDS011;46725;48.068;20.832;2023-03-31T09:06:42;39.60;;;22.08;;
58123;SDS011;46725;48.068;20.832;2023-03-31T09:09:24;36.03;;;21.85;;
58123;SDS011;46725;48.068;20.832;2023-03-31T09:11:55;35.83;;;20.98;;
58123;SDS011;46725;48.068;20.832;2023-03-31T09:17:22;39.22;;;21.35;;
58123;SDS011;46725;48.068;20.832;2023-03-31T09:22:26;35.95;;;20.35;;
58123;SDS011;46725;48.068;20.832;2023-03-31T09:27:21;31.17;;;19.08;;
58123;SDS011;46725;48.068;20.832;2023-03-31T09:29:59;34.00;;;19.05;;
58123;SDS011;46725;48.068;20.832;2023-03-31T09:32:30;33.25;;;19.45;;
58123;SDS011;46725;48.068;20.832;2023-03-31T09:35:00;31.35;;;18.17;;
58123;SDS011;46725;48.068;20.832;2023-03-31T09:37:29;29.70;;;18.77;;
58123;SDS011;46725;48.068;20.832;2023-03-31T09:39:57;29.60;;;18.63;;
58123;SDS011;46725;48.068;20.832;2023-03-31T09:42:24;30.13;;;18.25;;
58123;SDS011;46725;48.068;20.832;2023-03-31T09:44:50;29.58;;;18.88;;
58123;SDS011;46725;48.068;20.832;2023-03-31T09:50:03;30.15;;;18.15;;
58123;SDS011;46725;48.068;20.832;2023-03-31T09:52:30;28.85;;;18.58;;
58123;SDS011;46725;48.068;20.832;2023-03-31T09:55:01;34.38;;;19.10;;
58123;SDS011;46725;48.068;20.832;2023-03-31T09:57:32;31.10;;;17.73;;
58123;SDS011;46725;48.068;20.832;2023-03-31T10:00:10;29.70;;;17.83;;
58123;SDS011;46725;48.068;20.832;2023-03-31T10:02:42;29.33;;;18.38;;
58123;SDS011;46725;48.068;20.832;2023-03-31T10:07:44;31.65;;;19.30;;
58123;SDS011;46725;48.068;20.832;2023-03-31T10:10:15;29.20;;;18.45;;
58123;SDS011;46725;48.068;20.832;2023-03-31T10:12:49;30.65;;;18.65;;
58123;SDS011;46725;48.068;20.832;2023-03-31T10:15:20;25.85;;;17.25;;
58123;SDS011;46725;48.068;20.832;2023-03-31T10:17:46;27.92;;;18.52;;
58123;SDS011;46725;48.068;20.832;2023-03-31T10:20:36;29.13;;;18.48;;
58123;SDS011;46725;48.068;20.832;2023-03-31T10:23:03;26.85;;;17.30;;
58123;SDS011;46725;48.068;20.832;2023-03-31T10:25:29;30.08;;;17.48;;
58123;SDS011;46725;48.068;20.832;2023-03-31T10:27:57;29.25;;;17.48;;
58123;SDS011;46725;48.068;20.832;2023-03-31T10:30:24;26.95;;;17.52;;
58123;SDS011;46725;48.068;20.832;2023-03-31T10:32:50;26.13;;;18.50;;
58123;SDS011;46725;48.068;20.832;2023-03-31T10:37:46;27.58;;;17.40;;
58123;SDS011;46725;48.068;20.832;2023-03-31T10:40:13;29.08;;;18.48;;
58123;SDS011;46725;48.068;20.832;2023-03-31T10:42:43;27.55;;;18.00;;
58123;SDS011;46725;48.068;20.832;2023-03-31T10:45:10;31.45;;;19.25;;
58123;SDS011;46725;48.068;20.832;2023-03-31T10:47:38;26.98;;;17.90;;
58123;SDS011;46725;48.068;20.832;2023-03-31T10:50:08;28.73;;;18.60;;
58123;SDS011;46725;48.068;20.832;2023-03-31T10:52:42;29.23;;;19.40;;
58123;SDS011;46725;48.068;20.832;2023-03-31T10:55:11;28.77;;;19.35;;
58123;SDS011;46725;48.068;20.832;2023-03-31T11:07:58;33.80;;;22.52;;
58123;SDS011;46725;48.068;20.832;2023-03-31T11:23:23;35.92;;;22.73;;
58123;SDS011;46725;48.068;20.832;2023-03-31T11:28:26;35.03;;;22.20;;
58123;SDS011;46725;48.068;20.832;2023-03-31T11:41:13;34.60;;;21.63;;
58123;SDS011;46725;48.068;20.832;2023-03-31T11:54:03;22.60;;;16.23;;
58123;SDS011;46725;48.068;20.832;2023-03-31T11:56:36;21.42;;;15.05;;
58123;SDS011;46725;48.068;20.832;2023-03-31T11:59:03;24.88;;;16.63;;
58123;SDS011;46725;48.068;20.832;2023-03-31T12:01:46;23.65;;;15.32;;
58123;SDS011;46725;48.068;20.832;2023-03-31T12:04:18;21.85;;;14.07;;
58123;SDS011;46725;48.068;20.832;2023-03-31T12:06:47;21.50;;;14.32;;
58123;SDS011;46725;48.068;20.832;2023-03-31T12:09:16;23.00;;;14.25;;
58123;SDS011;46725;48.068;20.832;2023-03-31T12:14:22;21.67;;;12.93;;
58123;SDS011;46725;48.068;20.832;2023-03-31T12:16:51;20.65;;;13.48;;
58123;SDS011;46725;48.068;20.832;2023-03-31T12:21:55;20.42;;;13.30;;
58123;SDS011;46725;48.068;20.832;2023-03-31T12:24:23;20.50;;;14.02;;
58123;SDS011;46725;48.068;20.832;2023-03-31T12:27:09;18.80;;;11.75;;
58123;SDS011;46725;48.068;20.832;2023-03-31T12:29:41;19.98;;;13.32;;
58123;SDS011;46725;48.068;20.832;2023-03-31T12:32:18;18.98;;;12.63;;
58123;SDS011;46725;48.068;20.832;2023-03-31T12:34:47;23.90;;;13.05;;
58123;SDS011;46725;48.068;20.832;2023-03-31T12:40:09;20.25;;;12.40;;
58123;SDS011;46725;48.068;20.832;2023-03-31T12:43:00;18.17;;;11.95;;
58123;SDS011;46725;48.068;20.832;2023-03-31T12:45:30;21.58;;;12.57;;
58123;SDS011;46725;48.068;20.832;2023-03-31T12:48:42;28.92;;;17.30;;
58123;SDS011;46725;48.068;20.832;2023-03-31T12:50:55;24.55;;;14.43;;
58123;SDS011;46725;48.068;20.832;2023-03-31T12:55:58;20.08;;;13.70;;
58123;SDS011;46725;48.068;20.832;2023-03-31T13:08:58;17.20;;;12.02;;
58123;SDS011;46725;48.068;20.832;2023-03-31T13:14:16;17.15;;;11.30;;
58123;SDS011;46725;48.068;20.832;2023-03-31T13:16:44;20.92;;;11.57;;
58123;SDS011;46725;48.068;20.832;2023-03-31T13:19:11;17.60;;;10.73;;
58123;SDS011;46725;48.068;20.832;2023-03-31T13:21:56;21.02;;;12.38;;
58123;SDS011;46725;48.068;20.832;2023-03-31T13:24:23;16.95;;;10.70;;
58123;SDS011;46725;48.068;20.832;2023-03-31T13:26:50;18.83;;;11.23;;
58123;SDS011;46725;48.068;20.832;2023-03-31T13:52:23;19.23;;;12.68;;
58123;SDS011;46725;48.068;20.832;2023-03-31T13:55:00;19.95;;;12.10;;
58123;SDS011;46725;48.068;20.832;2023-03-31T14:05:04;23.02;;;13.27;;
58123;SDS011;46725;48.068;20.832;2023-03-31T14:07:43;27.42;;;15.85;;
58123;SDS011;46725;48.068;20.832;2023-03-31T14:10:29;21.90;;;13.07;;
58123;SDS011;46725;48.068;20.832;2023-03-31T14:13:06;17.25;;;11.27;;
58123;SDS011;46725;48.068;20.832;2023-03-31T14:15:32;17.58;;;11.15;;
58123;SDS011;46725;48.068;20.832;2023-03-31T14:18:00;20.95;;;13.48;;
58123;SDS011;46725;48.068;20.832;2023-03-31T14:25:43;76.13;;;50.53;;
58123;SDS011;46725;48.068;20.832;2023-03-31T14:30:49;19.65;;;12.43;;
58123;SDS011;46725;48.068;20.832;2023-03-31T14:35:56;11.93;;;7.15;;
58123;SDS011;46725;48.068;20.832;2023-03-31T14:38:26;15.85;;;8.63;;
58123;SDS011;46725;48.068;20.832;2023-03-31T14:40:53;16.40;;;8.20;;
58123;SDS011;46725;48.068;20.832;2023-03-31T14:43:32;18.90;;;11.00;;
58123;SDS011;46725;48.068;20.832;2023-03-31T14:46:02;18.90;;;11.00;;
58123;SDS011;46725;48.068;20.832;2023-03-31T14:48:29;19.58;;;11.77;;
58123;SDS011;46725;48.068;20.832;2023-03-31T14:50:57;20.40;;;12.20;;
58123;SDS011;46725;48.068;20.832;2023-03-31T14:53:25;16.95;;;11.15;;
58123;SDS011;46725;48.068;20.832;2023-03-31T14:58:51;17.08;;;11.50;;
58123;SDS011;46725;48.068;20.832;2023-03-31T15:01:28;17.27;;;9.43;;
58123;SDS011;46725;48.068;20.832;2023-03-31T15:03:58;17.50;;;8.35;;
58123;SDS011;46725;48.068;20.832;2023-03-31T15:06:25;12.52;;;5.72;;
58123;SDS011;46725;48.068;20.832;2023-03-31T15:08:51;12.85;;;6.32;;
58123;SDS011;46725;48.068;20.832;2023-03-31T15:11:21;13.15;;;5.68;;
58123;SDS011;46725;48.068;20.832;2023-03-31T15:13:47;11.65;;;6.03;;
58123;SDS011;46725;48.068;20.832;2023-03-31T15:18:59;16.30;;;8.95;;
58123;SDS011;46725;48.068;20.832;2023-03-31T15:21:26;18.17;;;10.30;;
58123;SDS011;46725;48.068;20.832;2023-03-31T15:23:56;20.47;;;12.73;;
58123;SDS011;46725;48.068;20.832;2023-03-31T15:26:30;24.25;;;14.25;;
58123;SDS011;46725;48.068;20.832;2023-03-31T15:29:00;25.60;;;16.80;;
58123;SDS011;46725;48.068;20.832;2023-03-31T15:31:26;24.65;;;17.48;;
58123;SDS011;46725;48.068;20.832;2023-03-31T15:33:54;24.50;;;16.27;;
58123;SDS011;46725;48.068;20.832;2023-03-31T15:36:20;28.15;;;14.95;;
58123;SDS011;46725;48.068;20.832;2023-03-31T15:38:53;23.95;;;15.38;;
58123;SDS011;46725;48.068;20.832;2023-03-31T15:41:20;21.70;;;14.73;;
58123;SDS011;46725;48.068;20.832;2023-03-31T15:43:47;19.75;;;12.60;;
58123;SDS011;46725;48.068;20.832;2023-03-31T15:47:04;23.20;;;13.43;;
58123;SDS011;46725;48.068;20.832;2023-03-31T15:49:03;21.40;;;14.80;;
58123;SDS011;46725;48.068;20.832;2023-03-31T15:51:34;20.80;;;14.00;;
58123;SDS011;46725;48.068;20.832;2023-03-31T15:54:01;31.73;;;17.70;;
58123;SDS011;46725;48.068;20.832;2023-03-31T15:56:28;27.40;;;18.52;;
58123;SDS011;46725;48.068;20.832;2023-03-31T15:58:59;29.55;;;19.27;;
58123;SDS011;46725;48.068;20.832;2023-03-31T16:01:37;29.07;;;19.47;;
58123;SDS011;46725;48.068;20.832;2023-03-31T16:04:07;30.98;;;19.85;;
58123;SDS011;46725;48.068;20.832;2023-03-31T16:06:42;29.38;;;20.73;;
58123;SDS011;46725;48.068;20.832;2023-03-31T16:09:18;32.35;;;20.08;;
58123;SDS011;46725;48.068;20.832;2023-03-31T16:11:51;30.10;;;20.15;;
58123;SDS011;46725;48.068;20.832;2023-03-31T16:14:25;32.30;;;20.63;;
58123;SDS011;46725;48.068;20.832;2023-03-31T16:16:56;31.05;;;20.25;;
58123;SDS011;46725;48.068;20.832;2023-03-31T16:19:24;33.92;;;21.75;;
58123;SDS011;46725;48.068;20.832;2023-03-31T16:21:52;31.67;;;20.88;;
58123;SDS011;46725;48.068;20.832;2023-03-31T16:24:19;38.17;;;23.20;;
58123;SDS011;46725;48.068;20.832;2023-03-31T16:26:47;31.35;;;21.98;;
58123;SDS011;46725;48.068;20.832;2023-03-31T16:29:20;34.20;;;22.73;;
58123;SDS011;46725;48.068;20.832;2023-03-31T16:31:46;42.60;;;27.27;;
58123;SDS011;46725;48.068;20.832;2023-03-31T16:34:13;35.70;;;23.05;;
58123;SDS011;46725;48.068;20.832;2023-03-31T16:36:39;36.20;;;22.83;;
58123;SDS011;46725;48.068;20.832;2023-03-31T16:39:05;40.00;;;23.75;;
58123;SDS011;46725;48.068;20.832;2023-03-31T16:41:32;36.80;;;24.83;;
58123;SDS011;46725;48.068;20.832;2023-03-31T16:43:58;39.88;;;25.25;;
58123;SDS011;46725;48.068;20.832;2023-03-31T16:46:25;42.05;;;25.80;;
58123;SDS011;46725;48.068;20.832;2023-03-31T16:48:51;41.13;;;24.67;;
58123;SDS011;46725;48.068;20.832;2023-03-31T16:51:17;41.25;;;25.30;;
58123;SDS011;46725;48.068;20.832;2023-03-31T16:53:44;41.33;;;27.00;;
58123;SDS011;46725;48.068;20.832;2023-03-31T16:56:11;45.78;;;27.65;;
58123;SDS011;46725;48.068;20.832;2023-03-31T16:58:38;43.90;;;25.75;;
58123;SDS011;46725;48.068;20.832;2023-03-31T17:01:04;45.45;;;27.73;;
58123;SDS011;46725;48.068;20.832;2023-03-31T17:03:31;46.85;;;27.75;;
58123;SDS011;46725;48.068;20.832;2023-03-31T17:06:02;46.17;;;29.60;;
58123;SDS011;46725;48.068;20.832;2023-03-31T17:08:29;47.47;;;28.15;;
58123;SDS011;46725;48.068;20.832;2023-03-31T17:11:10;46.75;;;29.48;;
58123;SDS011;46725;48.068;20.832;2023-03-31T17:13:36;53.75;;;32.70;;
58123;SDS011;46725;48.068;20.832;2023-03-31T17:16:03;65.97;;;41.28;;
58123;SDS011;46725;48.068;20.832;2023-03-31T17:18:29;51.65;;;31.70;;
58123;SDS011;46725;48.068;20.832;2023-03-31T17:21:08;44.83;;;28.17;;